Time;durP1;ratioP1;P1;durP2;ratioP2;P2;SDS_P1;SDS_P2;PMS_P1;PMS_P2;Temp;Humidity;BMP_temperature;BMP_pressure;BME280_temperature;BME280_humidity;BME280_pressure;Samples;Min_cycle;Max_cycle;Signal;HPM_P1;HPM_P2
2022/04/25 00:01:17;;;;;;;0.73;0.73;;;-1.90;99.90;;;;;;4989938;28;20204;-80
2022/04/25 00:03:44;;;;;;;0.80;0.80;;;-2.00;99.90;;;;;;4973651;28;20711;-80
2022/04/25 00:06:10;;;;;;;0.80;0.80;;;-2.00;99.90;;;;;;4990084;28;20208;-80
2022/04/25 00:08:36;;;;;;;0.80;0.80;;;-2.00;99.90;;;;;;4990255;28;20208;-80
2022/04/25 00:11:02;;;;;;;0.80;0.80;;;-2.10;99.90;;;;;;4976052;28;20227;-80
2022/04/25 00:13:28;;;;;;;0.77;0.77;;;-2.10;99.90;;;;;;4994070;28;20691;-80
2022/04/25 00:15:54;;;;;;;0.70;0.70;;;-2.10;99.90;;;;;;4993697;28;20207;-80
2022/04/25 00:18:21;;;;;;;0.60;0.60;;;-2.20;99.90;;;;;;4993290;28;20204;-80
2022/04/25 00:20:46;;;;;;;0.70;0.70;;;-2.20;99.90;;;;;;4977460;28;20683;-79
2022/04/25 00:23:12;;;;;;;0.70;0.70;;;-2.20;99.90;;;;;;4979038;28;20296;-79
2022/04/25 00:25:38;;;;;;;0.82;0.82;;;-2.30;99.90;;;;;;4969991;28;20208;-79
2022/04/25 00:28:05;;;;;;;0.82;0.82;;;-2.30;99.90;;;;;;4954274;29;20676;-79
2022/04/25 00:30:31;;;;;;;0.80;0.80;;;-2.30;99.90;;;;;;4954913;29;20676;-80
2022/04/25 00:32:58;;;;;;;0.75;0.75;;;-2.30;99.90;;;;;;4953949;29;20284;-80
2022/04/25 00:35:25;;;;;;;0.70;0.70;;;-2.30;99.90;;;;;;4967575;28;20678;-79
2022/04/25 00:37:51;;;;;;;0.70;0.70;;;-2.40;99.90;;;;;;4973661;28;20725;-80
2022/04/25 00:40:22;;;;;;;0.68;0.68;;;-2.40;99.90;;;;;;4974497;28;20336;-80
2022/04/25 00:42:48;;;;;;;0.60;0.60;;;-2.40;99.90;;;;;;4957037;28;20237;-79
2022/04/25 00:45:16;;;;;;;0.80;0.80;;;-2.40;99.90;;;;;;4973970;28;20207;-78
2022/04/25 00:47:42;;;;;;;1.27;1.20;;;-2.50;99.90;;;;;;4957914;28;20196;-80
2022/04/25 00:50:09;;;;;;;0.70;0.70;;;-2.50;99.90;;;;;;4974680;28;20216;-80
2022/04/25 00:52:35;;;;;;;0.70;0.70;;;-2.50;99.90;;;;;;4974961;28;20558;-79
2022/04/25 00:55:03;;;;;;;0.70;0.70;;;-2.50;99.90;;;;;;4973868;28;20192;-79
2022/04/25 00:57:31;;;;;;;0.70;0.70;;;-2.50;99.90;;;;;;4973522;28;20572;-80
2022/04/25 00:59:58;;;;;;;0.70;0.70;;;-2.50;99.90;;;;;;4975022;28;20275;-79
2022/04/25 01:02:27;;;;;;;0.70;0.70;;;-2.60;99.90;;;;;;4973744;28;20230;-79
2022/04/25 01:04:57;;;;;;;0.80;0.80;;;-2.60;99.90;;;;;;4973469;28;20742;-79
2022/04/25 01:07:23;;;;;;;2.95;2.35;;;-2.60;99.90;;;;;;4974663;28;20626;-79
2022/04/25 01:09:48;;;;;;;0.75;0.75;;;-2.70;99.90;;;;;;4973646;28;20196;-80
2022/04/25 01:12:14;;;;;;;0.90;0.90;;;-2.70;99.90;;;;;;4973990;28;20196;-80
2022/04/25 01:14:40;;;;;;;0.80;0.80;;;-2.70;99.90;;;;;;4973558;28;20220;-79
2022/04/25 01:17:07;;;;;;;0.77;0.77;;;-2.70;99.90;;;;;;4974823;28;20226;-79
2022/04/25 01:19:33;;;;;;;0.80;0.80;;;-2.70;99.90;;;;;;4974532;28;20188;-79
2022/04/25 01:22:04;;;;;;;0.70;0.70;;;-2.70;99.90;;;;;;4955669;28;20699;-80
2022/04/25 01:27:15;;;;;;;0.65;0.65;;;-2.70;99.90;;;;;;4967132;28;20215;-79
2022/04/25 01:29:42;;;;;;;0.80;0.80;;;-2.70;99.90;;;;;;4973168;28;20203;-79
2022/04/25 01:32:08;;;;;;;0.80;0.80;;;-2.70;99.90;;;;;;4992421;28;20714;-79
2022/04/25 01:34:38;;;;;;;0.80;0.80;;;-2.60;99.90;;;;;;4992437;28;20200;-79
2022/04/25 01:37:15;;;;;;;0.77;0.77;;;-2.60;99.90;;;;;;4976670;28;20199;-78
2022/04/25 01:39:49;;;;;;;0.80;0.80;;;-2.70;99.90;;;;;;4976616;28;20202;-79
2022/04/25 01:42:16;;;;;;;0.60;0.60;;;-2.70;99.90;;;;;;4977013;28;20667;-79
2022/04/25 01:44:43;;;;;;;0.70;0.70;;;-2.70;99.90;;;;;;4974793;28;20199;-79
2022/04/25 01:47:09;;;;;;;0.70;0.70;;;-2.80;99.90;;;;;;4989795;28;20196;-79
2022/04/25 01:49:35;;;;;;;0.80;0.80;;;-2.80;99.90;;;;;;4989451;28;20567;-79
2022/04/25 01:52:06;;;;;;;0.80;0.80;;;-2.80;99.90;;;;;;4974450;28;20214;-80
2022/04/25 01:54:32;;;;;;;0.82;0.82;;;-2.80;99.90;;;;;;4973390;28;20197;-79
2022/04/25 01:56:58;;;;;;;0.63;0.63;;;-2.80;99.90;;;;;;4989101;28;20200;-79
2022/04/25 01:59:24;;;;;;;0.70;0.70;;;-2.80;99.90;;;;;;4988525;28;20644;-79
2022/04/25 02:01:51;;;;;;;0.70;0.70;;;-2.90;99.90;;;;;;4994585;28;20571;-81
2022/04/25 02:04:18;;;;;;;0.70;0.70;;;-2.90;99.90;;;;;;4967573;28;20200;-79
2022/04/25 02:06:43;;;;;;;0.90;0.90;;;-3.00;99.90;;;;;;4973292;28;20204;-79
2022/04/25 02:09:09;;;;;;;0.75;0.75;;;-3.00;99.90;;;;;;4989603;28;20742;-78
2022/04/25 02:11:35;;;;;;;0.70;0.70;;;-3.00;99.90;;;;;;4973175;28;20220;-79
2022/04/25 02:14:01;;;;;;;0.82;0.82;;;-3.10;99.90;;;;;;4973436;28;20204;-80
2022/04/25 02:16:27;;;;;;;0.80;0.80;;;-3.10;99.90;;;;;;4957329;28;20266;-79
2022/04/25 02:18:54;;;;;;;0.70;0.70;;;-3.10;99.90;;;;;;4989808;28;20346;-79
2022/04/25 02:21:20;;;;;;;0.70;0.70;;;-3.10;99.90;;;;;;4974573;28;20334;-79
2022/04/25 02:23:49;;;;;;;0.85;0.85;;;-3.10;99.90;;;;;;4989785;28;20203;-79
2022/04/25 02:26:15;;;;;;;0.70;0.70;;;-3.10;99.90;;;;;;4992927;28;20211;-80
2022/04/25 02:28:40;;;;;;;0.80;0.80;;;-3.20;99.90;;;;;;4975866;28;20204;-79
2022/04/25 02:31:07;;;;;;;0.70;0.70;;;-3.10;99.90;;;;;;4976198;28;20215;-79
2022/04/25 02:33:34;;;;;;;0.70;0.70;;;-3.10;99.90;;;;;;4992713;28;20560;-79
2022/04/25 02:36:00;;;;;;;0.80;0.80;;;-3.10;99.90;;;;;;4980176;28;20257;-79
2022/04/25 02:38:26;;;;;;;0.80;0.80;;;-3.20;99.90;;;;;;4979791;28;20689;-79
2022/04/25 02:41:04;;;;;;;0.82;0.82;;;-3.20;99.90;;;;;;4995279;28;20196;-79
2022/04/25 02:43:42;;;;;;;0.70;0.70;;;-3.20;99.90;;;;;;4993010;28;20203;-79
2022/04/25 02:46:10;;;;;;;0.80;0.80;;;-3.20;99.90;;;;;;4987333;28;20638;-79
2022/04/25 02:48:36;;;;;;;0.70;0.70;;;-3.30;99.90;;;;;;4996027;28;20195;-78
2022/04/25 02:51:04;;;;;;;0.70;0.70;;;-3.30;99.90;;;;;;4997322;28;20601;-79
2022/04/25 02:53:31;;;;;;;0.90;0.90;;;-3.30;99.90;;;;;;5012115;28;20655;-79
2022/04/25 02:55:57;;;;;;;0.70;0.70;;;-3.30;99.90;;;;;;4995855;28;20192;-79
2022/04/25 02:58:23;;;;;;;0.77;0.77;;;-3.40;99.90;;;;;;4995672;28;20196;-79
2022/04/25 03:00:50;;;;;;;0.80;0.80;;;-3.30;99.90;;;;;;4992733;28;20212;-79
2022/04/25 03:03:19;;;;;;;0.73;0.73;;;-3.30;99.90;;;;;;4994050;28;20692;-79
2022/04/25 03:05:47;;;;;;;0.70;0.70;;;-3.30;99.90;;;;;;4997128;28;20414;-79
2022/04/25 03:08:19;;;;;;;0.70;0.70;;;-3.30;99.90;;;;;;4979611;28;20202;-80
2022/04/25 03:10:45;;;;;;;0.60;0.60;;;-3.20;99.90;;;;;;4979534;28;20215;-79
2022/04/25 03:13:16;;;;;;;0.68;0.68;;;-3.20;99.90;;;;;;4979674;28;20574;-79
2022/04/25 03:15:43;;;;;;;0.80;0.80;;;-3.20;99.90;;;;;;4996322;28;20702;-79
2022/04/25 03:18:10;;;;;;;0.80;0.80;;;-3.30;99.90;;;;;;4979032;28;20277;-78
2022/04/25 03:20:37;;;;;;;0.70;0.70;;;-3.30;99.90;;;;;;4996939;28;20229;-78
2022/04/25 03:23:03;;;;;;;0.80;0.80;;;-3.30;99.90;;;;;;4996439;28;20223;-79
2022/04/25 03:25:31;;;;;;;0.80;0.80;;;-3.30;99.90;;;;;;4995553;28;20566;-78
2022/04/25 03:27:57;;;;;;;0.80;0.80;;;-3.30;99.90;;;;;;4997163;28;20669;-80
2022/04/25 03:30:24;;;;;;;0.80;0.80;;;-3.30;99.90;;;;;;4996259;28;20216;-79
2022/04/25 03:32:50;;;;;;;0.75;0.75;;;-3.30;99.90;;;;;;4995831;28;20286;-79
2022/04/25 03:35:18;;;;;;;0.80;0.80;;;-3.30;99.90;;;;;;4979136;28;20231;-79
2022/04/25 03:37:45;;;;;;;0.70;0.70;;;-3.30;99.90;;;;;;4989968;28;20278;-79
2022/04/25 03:40:12;;;;;;;0.70;0.70;;;-3.30;99.90;;;;;;4992096;28;20199;-79
2022/04/25 03:42:39;;;;;;;0.85;0.85;;;-3.30;99.90;;;;;;4975617;28;20204;-79
2022/04/25 03:45:07;;;;;;;0.80;0.80;;;-3.30;99.90;;;;;;4990789;28;20196;-78
2022/04/25 03:47:33;;;;;;;0.90;0.90;;;-3.20;99.90;;;;;;4976772;28;20204;-79
2022/04/25 03:49:58;;;;;;;0.70;0.70;;;-3.20;99.90;;;;;;4991538;28;20188;-80
2022/04/25 03:52:24;;;;;;;0.80;0.80;;;-3.10;99.90;;;;;;4990653;28;20207;-79
2022/04/25 03:57:34;;;;;;;0.80;0.80;;;-3.00;99.90;;;;;;4990769;28;20210;-79
2022/04/25 04:00:00;;;;;;;0.80;0.80;;;-3.00;99.90;;;;;;4978567;28;20183;-79
2022/04/25 04:02:26;;;;;;;0.80;0.80;;;-3.00;99.90;;;;;;4994597;28;20282;-79
2022/04/25 04:04:51;;;;;;;0.80;0.80;;;-2.90;99.90;;;;;;4996049;28;20195;-78
2022/04/25 04:07:17;;;;;;;1.33;1.23;;;-2.90;99.90;;;;;;4978388;28;20278;-79
2022/04/25 04:09:45;;;;;;;0.70;0.70;;;-2.80;99.90;;;;;;4977786;28;20201;-79
2022/04/25 04:12:15;;;;;;;0.70;0.70;;;-2.80;99.90;;;;;;4978316;28;20655;-81
2022/04/25 04:14:41;;;;;;;0.70;0.70;;;-2.70;99.90;;;;;;4995553;28;20199;-79
2022/04/25 04:17:07;;;;;;;0.75;0.75;;;-2.60;99.90;;;;;;4978714;28;20199;-81
2022/04/25 04:19:37;;;;;;;0.70;0.70;;;-2.50;99.90;;;;;;4978004;28;20195;-79
2022/04/25 04:22:05;;;;;;;0.80;0.80;;;-2.50;99.90;;;;;;4990778;28;20231;-81
2022/04/25 04:24:31;;;;;;;0.90;0.90;;;-2.40;99.90;;;;;;4959871;28;20204;-82
2022/04/25 04:26:58;;;;;;;1.42;1.33;;;-2.30;99.90;;;;;;4991267;28;20214;-81
2022/04/25 04:29:24;;;;;;;0.70;0.70;;;-2.20;99.90;;;;;;4974511;28;20238;-81
2022/04/25 04:31:49;;;;;;;0.73;0.73;;;-2.10;99.90;;;;;;4974407;28;20251;-81
2022/04/25 04:34:15;;;;;;;0.90;0.90;;;-2.00;99.90;;;;;;4975566;28;20204;-80
2022/04/25 04:36:41;;;;;;;0.70;0.70;;;-1.90;99.90;;;;;;4976031;28;20199;-80
2022/04/25 04:39:06;;;;;;;0.60;0.60;;;-1.80;99.90;;;;;;4974580;28;20196;-80
2022/04/25 04:41:32;;;;;;;0.70;0.70;;;-1.80;99.90;;;;;;4989976;28;20223;-81
2022/04/25 04:43:58;;;;;;;2.88;1.35;;;-1.60;99.90;;;;;;4974409;28;20609;-80
2022/04/25 04:46:27;;;;;;;0.77;0.77;;;-1.50;99.90;;;;;;4975616;28;20207;-83
2022/04/25 04:48:52;;;;;;;0.60;0.60;;;-0.70;99.90;;;;;;4974956;28;20188;-85
2022/04/25 04:51:18;;;;;;;0.68;0.68;;;-0.40;99.90;;;;;;4990152;28;20693;-83
2022/04/25 04:53:44;;;;;;;0.70;0.70;;;-0.30;99.90;;;;;;4975417;28;20196;-83
2022/04/25 04:56:10;;;;;;;0.60;0.60;;;-0.30;99.90;;;;;;4990426;28;20207;-84
2022/04/25 04:58:35;;;;;;;0.70;0.70;;;-0.20;99.90;;;;;;4974432;28;20263;-84
2022/04/25 05:01:01;;;;;;;1.92;1.33;;;-0.20;99.90;;;;;;4990504;28;20230;-83
2022/04/25 05:03:27;;;;;;;0.68;0.68;;;-0.20;99.90;;;;;;4973315;28;20303;-83
2022/04/25 05:05:54;;;;;;;1.70;1.60;;;-0.10;99.90;;;;;;4973659;28;20204;-82
2022/04/25 05:08:19;;;;;;;1.48;1.13;;;0.00;99.90;;;;;;4974390;28;20212;-85
2022/04/25 05:10:45;;;;;;;1.30;1.20;;;0.00;99.90;;;;;;4974285;28;20683;-83
2022/04/25 05:13:11;;;;;;;0.90;0.90;;;0.10;99.90;;;;;;4975811;28;20252;-82
2022/04/25 05:15:37;;;;;;;10.82;2.15;;;0.30;99.90;;;;;;4974473;28;20200;-81
2022/04/25 05:18:03;;;;;;;0.77;0.77;;;0.40;99.90;;;;;;4989811;28;20224;-86
2022/04/25 05:20:29;;;;;;;1.00;1.00;;;0.50;99.90;;;;;;4989507;28;20722;-84
2022/04/25 05:22:56;;;;;;;0.90;0.90;;;0.70;99.90;;;;;;4990864;28;20198;-84
2022/04/25 05:25:25;;;;;;;1.02;1.02;;;0.80;99.90;;;;;;4990147;28;20295;-84
2022/04/25 05:27:56;;;;;;;0.60;0.60;;;1.00;99.90;;;;;;4990440;28;20235;-85
2022/04/25 05:30:23;;;;;;;0.70;0.70;;;1.20;99.90;;;;;;4975165;28;20239;-84
2022/04/25 05:32:54;;;;;;;0.75;0.75;;;1.40;99.90;;;;;;4989777;28;20200;-83
2022/04/25 05:35:27;;;;;;;0.80;0.80;;;1.50;99.90;;;;;;4989544;28;20207;-84
2022/04/25 05:37:53;;;;;;;0.80;0.80;;;1.70;99.90;;;;;;4990196;28;20196;-84
2022/04/25 05:40:19;;;;;;;0.85;0.77;;;1.80;99.90;;;;;;4990067;28;20698;-84
2022/04/25 05:42:47;;;;;;;0.80;0.80;;;2.00;99.90;;;;;;4989795;28;20204;-84
2022/04/25 05:45:18;;;;;;;0.70;0.70;;;2.20;99.90;;;;;;4989608;28;20572;-84
2022/04/25 05:47:44;;;;;;;0.80;0.80;;;2.40;99.90;;;;;;4990218;28;20212;-84
2022/04/25 05:52:56;;;;;;;0.80;0.80;;;2.80;99.90;;;;;;4973688;28;20224;-84
2022/04/25 05:55:22;;;;;;;0.80;0.80;;;3.10;99.90;;;;;;4972935;28;20330;-83
2022/04/25 05:57:48;;;;;;;0.73;0.73;;;3.30;99.90;;;;;;4988192;28;20203;-83
2022/04/25 06:00:14;;;;;;;0.80;0.80;;;3.50;99.90;;;;;;4989094;28;20413;-84
2022/04/25 06:02:41;;;;;;;1.15;1.05;;;3.70;99.90;;;;;;4988966;28;20287;-83
2022/04/25 06:05:10;;;;;;;0.68;0.68;;;3.80;99.90;;;;;;4989770;28;20204;-83
2022/04/25 06:07:37;;;;;;;0.80;0.80;;;4.00;99.90;;;;;;4989869;28;20663;-83
2022/04/25 06:10:04;;;;;;;0.80;0.80;;;4.10;99.90;;;;;;4993766;28;20618;-84
2022/04/25 06:12:30;;;;;;;0.80;0.80;;;4.20;99.90;;;;;;4979169;28;20200;-83
2022/04/25 06:15:02;;;;;;;0.73;0.73;;;4.30;99.90;;;;;;4979209;28;20203;-84
2022/04/25 06:17:28;;;;;;;1.20;1.10;;;4.50;99.90;;;;;;4976594;28;20575;-83
2022/04/25 06:19:54;;;;;;;0.80;0.80;;;4.60;99.90;;;;;;4979238;28;20220;-83
2022/04/25 06:22:20;;;;;;;0.80;0.80;;;4.70;99.90;;;;;;4976037;28;20642;-83
2022/04/25 06:24:47;;;;;;;0.65;0.65;;;4.80;99.90;;;;;;4977987;28;20566;-83
2022/04/25 06:27:13;;;;;;;0.70;0.70;;;5.00;99.90;;;;;;4977780;28;20663;-83
2022/04/25 06:29:44;;;;;;;0.60;0.60;;;5.30;99.90;;;;;;4978154;28;20660;-83
2022/04/25 06:32:10;;;;;;;0.70;0.70;;;5.50;99.90;;;;;;4993183;28;20224;-79
2022/04/25 06:34:36;;;;;;;0.70;0.70;;;5.80;99.90;;;;;;4992423;28;20207;-80
2022/04/25 06:37:02;;;;;;;0.90;0.90;;;6.00;99.90;;;;;;4992471;28;20660;-80
2022/04/25 06:39:28;;;;;;;0.70;0.70;;;6.10;99.90;;;;;;4992295;28;20289;-80
2022/04/25 06:41:54;;;;;;;0.80;0.80;;;6.20;99.90;;;;;;4977359;28;20294;-82
2022/04/25 06:44:20;;;;;;;0.70;0.70;;;6.20;99.90;;;;;;4992186;28;20344;-80
2022/04/25 06:46:45;;;;;;;0.70;0.70;;;6.20;99.90;;;;;;4995759;28;20207;-79
2022/04/25 06:49:20;;;;;;;0.60;0.60;;;6.30;99.90;;;;;;4979452;28;20206;-79
2022/04/25 06:51:50;;;;;;;0.95;0.95;;;6.40;99.90;;;;;;4996888;28;20218;-80
2022/04/25 06:54:17;;;;;;;1.13;0.90;;;6.50;99.90;;;;;;4979527;28;20202;-80
2022/04/25 06:56:42;;;;;;;0.70;0.70;;;6.60;99.90;;;;;;4996623;28;20242;-79
2022/04/25 06:59:08;;;;;;;1.00;1.00;;;6.70;99.90;;;;;;4996624;28;20199;-81
2022/04/25 07:01:35;;;;;;;0.73;0.73;;;6.90;99.90;;;;;;4978566;28;20206;-79
2022/04/25 07:04:01;;;;;;;0.70;0.70;;;6.90;99.90;;;;;;4995561;28;20625;-80
2022/04/25 07:06:27;;;;;;;0.70;0.70;;;7.00;99.90;;;;;;4995307;28;20219;-80
2022/04/25 07:08:53;;;;;;;0.60;0.60;;;7.20;99.90;;;;;;4977648;28;20203;-80
2022/04/25 07:11:19;;;;;;;0.82;0.82;;;7.30;99.90;;;;;;4995206;28;20211;-80
2022/04/25 07:13:48;;;;;;;0.68;0.68;;;7.50;99.90;;;;;;4993960;28;20567;-80
2022/04/25 07:16:14;;;;;;;0.63;0.63;;;7.70;99.90;;;;;;4993878;28;20211;-81
2022/04/25 07:18:40;;;;;;;0.70;0.70;;;7.70;99.90;;;;;;4977545;28;20301;-83
2022/04/25 07:29:18;;;;;;;0.70;0.70;;;8.40;99.90;;;;;;4975756;28;20693;-84
2022/04/25 07:31:44;;;;;;;0.93;0.93;;;8.50;99.90;;;;;;4990324;28;20220;-83
2022/04/25 07:34:10;;;;;;;0.90;0.90;;;8.70;99.90;;;;;;4975970;28;20196;-80
2022/04/25 07:36:38;;;;;;;0.60;0.60;;;8.70;99.90;;;;;;4958381;28;20203;-80
2022/04/25 07:39:04;;;;;;;0.70;0.70;;;8.40;99.90;;;;;;4991044;28;20196;-80
2022/04/25 07:41:30;;;;;;;0.60;0.60;;;8.60;99.90;;;;;;4990835;28;20201;-80
2022/04/25 07:43:58;;;;;;;0.60;0.60;;;8.80;99.90;;;;;;4975156;28;20208;-81
2022/04/25 07:46:25;;;;;;;0.80;0.80;;;9.00;99.90;;;;;;4974608;28;20215;-80
2022/04/25 07:48:51;;;;;;;0.60;0.60;;;9.30;99.90;;;;;;4990753;28;20262;-80
2022/04/25 07:51:18;;;;;;;0.60;0.60;;;9.30;99.90;;;;;;4990439;28;20219;-81
2022/04/25 07:53:44;;;;;;;0.60;0.60;;;9.30;99.90;;;;;;4991047;28;20742;-81
2022/04/25 07:56:10;;;;;;;1.42;1.33;;;9.50;99.90;;;;;;4975015;28;20338;-81
2022/04/25 07:58:37;;;;;;;0.60;0.60;;;9.80;99.90;;;;;;4991020;28;20224;-81
2022/04/25 08:01:04;;;;;;;0.60;0.60;;;10.10;99.90;;;;;;4974375;28;20224;-81
2022/04/25 08:03:29;;;;;;;0.60;0.60;;;10.20;99.90;;;;;;4990728;28;20236;-81
2022/04/25 08:05:55;;;;;;;0.60;0.60;;;10.30;99.90;;;;;;4974732;28;20690;-80
2022/04/25 08:08:21;;;;;;;0.60;0.60;;;10.40;99.90;;;;;;4989423;28;20550;-80
2022/04/25 08:10:47;;;;;;;0.60;0.60;;;10.40;98.40;;;;;;4973415;28;20215;-81
2022/04/25 08:18:51;;;;;;;0.50;0.50;;;11.20;98.40;;;;;;4958890;28;20267;-81
2022/04/25 08:21:17;;;;;;;0.50;0.50;;;11.50;95.60;;;;;;4989194;28;20645;-82
2022/04/25 08:23:45;;;;;;;1.38;1.23;;;11.90;96.70;;;;;;4989137;28;20267;-81
2022/04/25 08:26:14;;;;;;;0.50;0.50;;;12.40;96.30;;;;;;4989382;28;20207;-81
2022/04/25 08:28:41;;;;;;;0.60;0.60;;;12.80;95.80;;;;;;4989309;28;20208;-81
2022/04/25 08:31:09;;;;;;;0.57;0.57;;;13.00;92.00;;;;;;4972310;28;20243;-81
2022/04/25 08:33:36;;;;;;;0.50;0.50;;;13.20;91.40;;;;;;4975221;28;20188;-80
2022/04/25 08:36:03;;;;;;;0.50;0.50;;;13.40;91.80;;;;;;4973162;28;20251;-81
2022/04/25 08:38:29;;;;;;;0.63;0.63;;;13.80;89.60;;;;;;4989654;28;20197;-81
2022/04/25 08:40:55;;;;;;;0.40;0.40;;;14.00;87.80;;;;;;4973911;28;20211;-81
2022/04/25 08:43:22;;;;;;;0.55;0.55;;;14.30;86.60;;;;;;4973880;28;20231;-83
2022/04/25 08:45:49;;;;;;;0.75;0.75;;;14.30;87.20;;;;;;4975371;28;20196;-82
2022/04/25 08:48:17;;;;;;;0.55;0.55;;;14.60;87.40;;;;;;4973950;28;20207;-82
2022/04/25 08:50:44;;;;;;;0.40;0.40;;;15.00;85.60;;;;;;4972763;28;20216;-82
2022/04/25 08:53:12;;;;;;;0.40;0.40;;;14.90;83.40;;;;;;4974134;28;20735;-83
2022/04/25 08:55:39;;;;;;;0.30;0.30;;;14.80;83.40;;;;;;4972968;28;20330;-82
2022/04/25 08:58:06;;;;;;;0.60;0.60;;;14.50;81.30;;;;;;4972573;28;20220;-83
2022/04/25 09:00:32;;;;;;;0.40;0.40;;;14.70;82.90;;;;;;4973542;28;20188;-83
2022/04/25 09:02:59;;;;;;;0.40;0.40;;;15.00;83.10;;;;;;4972725;28;20204;-82
2022/04/25 09:05:25;;;;;;;0.40;0.40;;;15.50;81.50;;;;;;4973243;28;20196;-82
2022/04/25 09:07:52;;;;;;;0.35;0.35;;;16.00;77.00;;;;;;4973494;28;20208;-82
2022/04/25 09:10:20;;;;;;;0.40;0.40;;;16.10;71.30;;;;;;4974682;28;20196;-82
2022/04/25 09:12:47;;;;;;;0.40;0.40;;;16.10;73.30;;;;;;4974024;28;20613;-81
2022/04/25 09:15:17;;;;;;;0.50;0.50;;;16.30;72.80;;;;;;4970818;28;20284;-82
2022/04/25 09:17:43;;;;;;;0.30;0.30;;;16.60;71.70;;;;;;4973364;28;20196;-81
2022/04/25 09:20:10;;;;;;;0.40;0.40;;;16.70;66.40;;;;;;4973127;28;20239;-81
2022/04/25 09:22:40;;;;;;;0.30;0.30;;;16.50;72.20;;;;;;4989492;28;20531;-82
2022/04/25 09:25:15;;;;;;;0.30;0.30;;;16.70;69.30;;;;;;4974707;28;20177;-81
2022/04/25 09:28:03;;;;;;;0.40;0.40;;;16.60;69.70;;;;;;4973324;28;20212;-82
2022/04/25 09:30:28;;;;;;;0.30;0.30;;;16.80;68.60;;;;;;4973736;28;20234;-82
2022/04/25 09:32:56;;;;;;;0.50;0.50;;;16.60;69.30;;;;;;4976733;28;20184;-83
2022/04/25 09:35:34;;;;;;;0.30;0.30;;;16.40;68.90;;;;;;4978320;28;20608;-81
2022/04/25 09:38:04;;;;;;;0.30;0.30;;;16.40;71.10;;;;;;4976304;28;20699;-80
2022/04/25 09:40:33;;;;;;;0.32;0.32;;;16.80;66.60;;;;;;4976257;28;20203;-81
2022/04/25 09:43:14;;;;;;;0.30;0.30;;;16.90;67.00;;;;;;4994597;28;20254;-80
2022/04/25 09:45:42;;;;;;;0.47;0.47;;;16.90;68.10;;;;;;4979952;28;20260;-81
2022/04/25 09:48:16;;;;;;;0.30;0.30;;;17.60;66.60;;;;;;4980237;28;20630;-80
2022/04/25 09:51:32;;;;;;;;;;;;;;;;;;;;;
2022/04/25 09:54:31;;;;;;;0.40;0.40;;;17.70;64.80;;;;;;4996759;28;20628;-84
2022/04/25 09:56:57;;;;;;;0.30;0.30;;;17.60;63.50;;;;;;4967635;28;20203;-77
2022/04/25 09:59:23;;;;;;;0.30;0.30;;;17.40;65.10;;;;;;4996604;28;20246;-75
2022/04/25 10:02:04;;;;;;;0.35;0.35;;;17.20;69.40;;;;;;4996418;28;20655;-77
2022/04/25 10:04:38;;;;;;;0.30;0.30;;;17.40;78.00;;;;;;4979032;28;20234;-76
2022/04/25 10:07:06;;;;;;;0.20;0.20;;;18.50;70.20;;;;;;4996599;28;20205;-76
2022/04/25 10:09:34;;;;;;;0.20;0.20;;;19.30;70.50;;;;;;4978884;28;20203;-76
2022/04/25 10:12:02;;;;;;;0.20;0.20;;;19.40;61.20;;;;;;4986292;28;20216;-76
2022/04/25 10:14:28;;;;;;;0.30;0.30;;;19.00;61.50;;;;;;4976745;28;20207;-76
2022/04/25 10:16:59;;;;;;;0.30;0.30;;;19.00;60.70;;;;;;4977014;28;20192;-75
2022/04/25 10:19:26;;;;;;;0.45;0.45;;;18.60;65.80;;;;;;4976786;28;20242;-76
2022/04/25 10:21:53;;;;;;;0.30;0.30;;;18.70;61.60;;;;;;4992276;28;20282;-77
2022/04/25 10:24:19;;;;;;;0.30;0.30;;;18.40;66.70;;;;;;4979587;28;20659;-77
2022/04/25 10:26:48;;;;;;;0.30;0.30;;;18.80;62.20;;;;;;4996920;28;20200;-75
2022/04/25 10:29:21;;;;;;;0.20;0.20;;;19.30;60.60;;;;;;4996963;28;20191;-77
2022/04/25 10:31:49;;;;;;;0.38;0.38;;;19.30;62.00;;;;;;4995415;28;20227;-76
2022/04/25 10:34:16;;;;;;;0.20;0.20;;;19.60;59.00;;;;;;4978689;28;20198;-76
2022/04/25 10:36:46;;;;;;;0.40;0.40;;;19.50;63.40;;;;;;4978337;28;20196;-76
2022/04/25 10:39:23;;;;;;;0.30;0.30;;;19.30;62.10;;;;;;4978541;28;20282;-76
2022/04/25 10:44:44;;;;;;;0.30;0.30;;;19.20;60.70;;;;;;4995838;28;20246;-76
2022/04/25 10:47:18;;;;;;;0.20;0.20;;;19.50;62.90;;;;;;4995962;28;20399;-77
2022/04/25 10:49:51;;;;;;;0.35;0.35;;;19.60;59.60;;;;;;4995878;28;20210;-76
2022/04/25 10:52:37;;;;;;;0.20;0.20;;;19.90;60.30;;;;;;4994570;28;20215;-76
2022/04/25 10:55:13;;;;;;;0.50;0.38;;;20.10;59.30;;;;;;4993979;28;20203;-76
2022/04/25 10:58:04;;;;;;;0.35;0.30;;;20.40;58.00;;;;;;4978068;28;20335;-74
2022/04/25 11:00:42;;;;;;;0.20;0.20;;;20.70;58.90;;;;;;4996198;28;20203;-77
2022/04/25 11:03:11;;;;;;;0.20;0.20;;;21.70;62.00;;;;;;4996407;28;20282;-77
2022/04/25 11:05:39;;;;;;;0.30;0.30;;;22.60;59.50;;;;;;4995406;28;20195;-77
2022/04/25 11:08:19;;;;;;;0.20;0.20;;;22.50;55.50;;;;;;4986832;28;20754;-77
2022/04/25 11:10:46;;;;;;;0.30;0.30;;;21.80;57.50;;;;;;4974580;28;20219;-76
2022/04/25 11:13:13;;;;;;;0.22;0.22;;;21.30;53.90;;;;;;4990900;28;20196;-77
2022/04/25 11:15:46;;;;;;;0.20;0.20;;;21.00;61.20;;;;;;4975752;28;20193;-77
2022/04/25 11:18:33;;;;;;;1.02;0.30;;;21.00;56.30;;;;;;4975916;28;20243;-77
2022/04/25 11:21:07;;;;;;;0.20;0.20;;;21.20;55.60;;;;;;4975804;28;20226;-78
2022/04/25 11:23:47;;;;;;;0.30;0.30;;;21.00;59.50;;;;;;4977845;28;20258;-77
2022/04/25 11:26:22;;;;;;;0.30;0.30;;;21.60;55.00;;;;;;4989918;28;20208;-77
2022/04/25 11:29:04;;;;;;;0.30;0.30;;;21.00;56.00;;;;;;4974933;28;20204;-77
2022/04/25 11:31:38;;;;;;;0.20;0.20;;;21.30;56.70;;;;;;4975743;28;20220;-77
2022/04/25 11:34:11;;;;;;;0.20;0.20;;;21.50;56.70;;;;;;4976416;28;20196;-76
2022/04/25 11:36:44;;;;;;;0.57;0.57;;;21.70;53.70;;;;;;4976140;28;20197;-76
2022/04/25 11:41:58;;;;;;;0.20;0.20;;;21.30;54.00;;;;;;4976667;28;20295;-77
2022/04/25 11:44:24;;;;;;;0.32;0.32;;;20.30;56.80;;;;;;4975906;28;20229;-77
2022/04/25 11:46:51;;;;;;;2.92;0.75;;;20.50;58.00;;;;;;4974583;28;20200;-77
2022/04/25 11:49:31;;;;;;;0.30;0.30;;;20.70;56.50;;;;;;4978657;28;20290;-76
2022/04/25 11:52:01;;;;;;;0.20;0.20;;;21.30;55.50;;;;;;4994582;28;20207;-77
2022/04/25 11:54:32;;;;;;;0.20;0.20;;;21.70;53.70;;;;;;4994366;28;20198;-77
2022/04/25 11:57:02;;;;;;;0.20;0.20;;;21.60;55.20;;;;;;4994973;28;20191;-77
2022/04/25 11:59:28;;;;;;;0.20;0.20;;;21.40;55.30;;;;;;4993485;28;20199;-76
2022/04/25 12:01:55;;;;;;;0.28;0.28;;;21.20;56.30;;;;;;4994450;28;20199;-77
2022/04/25 12:04:28;;;;;;;0.20;0.20;;;20.80;54.80;;;;;;4987476;28;20211;-77
2022/04/25 12:07:05;;;;;;;1.02;0.82;;;20.70;55.70;;;;;;4992675;28;20287;-77
2022/04/25 12:18:14;;;;;;;0.20;0.20;;;21.00;56.60;;;;;;4994968;28;20199;-78
2022/04/25 12:20:42;;;;;;;0.30;0.30;;;20.90;54.10;;;;;;4993475;28;20239;-79
2022/04/25 12:23:08;;;;;;;0.38;0.30;;;21.00;56.10;;;;;;4993334;28;20745;-79
2022/04/25 12:25:41;;;;;;;0.20;0.20;;;21.40;56.60;;;;;;4994620;28;20218;-79
2022/04/25 12:28:22;;;;;;;0.22;0.22;;;21.50;55.40;;;;;;5126595;27;20565;-72
2022/04/25 12:31:04;;;;;;;2.45;0.65;;;22.10;53.70;;;;;;5109333;28;20195;-73
2022/04/25 12:33:47;;;;;;;0.40;0.40;;;22.60;53.50;;;;;;5109102;28;20582;-72
2022/04/25 12:36:21;;;;;;;1.33;0.55;;;21.80;53.00;;;;;;5109265;28;20203;-73
2022/04/25 12:38:50;;;;;;;0.20;0.20;;;21.70;55.20;;;;;;5110487;28;20195;-72
2022/04/25 12:41:33;;;;;;;0.20;0.20;;;22.10;53.50;;;;;;5110475;28;20256;-72
2022/04/25 12:44:11;;;;;;;0.20;0.20;;;21.60;54.80;;;;;;5110642;28;20219;-73
2022/04/25 12:46:41;;;;;;;0.20;0.20;;;21.50;54.60;;;;;;5110392;28;20268;-73
2022/04/25 12:49:08;;;;;;;0.20;0.20;;;21.60;55.40;;;;;;5110837;28;20191;-72
2022/04/25 12:51:45;;;;;;;0.35;0.35;;;21.80;56.10;;;;;;5110284;28;20551;-73
2022/04/25 12:54:37;;;;;;;0.20;0.20;;;22.10;54.20;;;;;;5109291;28;20355;-73
2022/04/25 12:57:13;;;;;;;0.20;0.20;;;22.30;52.50;;;;;;5110460;28;20572;-72
2022/04/25 12:59:40;;;;;;;0.38;0.38;;;22.00;55.20;;;;;;5111179;28;20202;-71
2022/04/25 13:02:14;;;;;;;0.95;0.85;;;22.10;54.10;;;;;;5130707;28;20195;-72
2022/04/25 13:04:53;;;;;;;0.20;0.20;;;21.90;53.30;;;;;;5130723;28;20284;-72
2022/04/25 13:07:23;;;;;;;0.20;0.20;;;21.50;54.40;;;;;;5130367;28;20214;-73
2022/04/25 13:09:49;;;;;;;0.47;0.30;;;21.30;53.60;;;;;;5130537;28;20709;-73
2022/04/25 13:12:16;;;;;;;0.20;0.20;;;20.80;55.50;;;;;;5130892;28;20191;-73
2022/04/25 13:14:42;;;;;;;0.40;0.40;;;20.80;55.70;;;;;;5130365;28;20187;-70
2022/04/25 13:17:08;;;;;;;0.30;0.30;;;20.70;56.70;;;;;;5129052;28;20198;-70
2022/04/25 13:19:35;;;;;;;0.20;0.20;;;21.00;55.20;;;;;;5106704;28;20287;-72
2022/04/25 13:22:01;;;;;;;0.20;0.20;;;21.20;54.80;;;;;;5089446;28;20674;-73
2022/04/25 13:24:27;;;;;;;0.20;0.20;;;21.40;54.70;;;;;;5088466;28;20330;-72
2022/04/25 13:26:54;;;;;;;0.20;0.20;;;21.50;54.10;;;;;;5088035;28;20323;-72
2022/04/25 13:29:20;;;;;;;0.20;0.20;;;21.20;54.10;;;;;;5089315;28;20199;-71
2022/04/25 13:31:46;;;;;;;0.45;0.30;;;21.10;55.90;;;;;;5089318;28;20600;-70
2022/04/25 13:34:12;;;;;;;0.43;0.15;;;21.80;56.10;;;;;;5089212;28;20249;-70